createdAt,value
2023-02-17T00:00:25.352Z,5.11
2023-02-17T00:02:58.477Z,5.15
2023-02-17T00:05:27.587Z,5.18
2023-02-17T00:07:55.963Z,5.29
2023-02-17T00:10:25.093Z,5.42
2023-02-17T00:12:53.511Z,5.52
2023-02-17T00:15:22.448Z,5.56
2023-02-17T00:17:50.751Z,5.56
2023-02-17T00:20:21.554Z,5.59
2023-02-17T00:22:49.860Z,5.57
2023-02-17T00:25:18.986Z,5.59
2023-02-17T00:27:47.289Z,5.56
2023-02-17T00:30:18.357Z,5.68
2023-02-17T00:32:47.180Z,5.75
2023-02-17T00:35:15.632Z,5.80
2023-02-17T00:37:46.053Z,5.89
2023-02-17T00:40:15.595Z,5.89
2023-02-17T00:42:45.528Z,6.04
2023-02-17T00:45:14.285Z,6.11
2023-02-17T00:47:42.595Z,6.17
2023-02-17T00:50:11.920Z,6.22
2023-02-17T00:52:40.252Z,6.26
2023-02-17T00:55:11.264Z,6.27
2023-02-17T00:57:39.590Z,6.28
2023-02-17T01:00:10.452Z,6.28
2023-02-17T01:02:38.839Z,6.14
2023-02-17T01:05:08.474Z,6.05
2023-02-17T01:07:37.365Z,6.16
2023-02-17T01:10:06.493Z,6.21
2023-02-17T01:12:36.381Z,6.25
2023-02-17T01:15:05.763Z,6.21
2023-02-17T01:17:34.864Z,6.31
2023-02-17T01:20:04.577Z,6.28
2023-02-17T01:22:33.078Z,6.31
2023-02-17T01:25:02.471Z,6.29
2023-02-17T01:27:30.925Z,6.27
2023-02-17T01:30:02.282Z,6.30
2023-02-17T01:32:30.692Z,6.33
2023-02-17T01:34:59.473Z,6.37
2023-02-17T01:37:27.809Z,6.41
2023-02-17T01:39:56.648Z,6.44
2023-02-17T01:42:25.379Z,6.44
2023-02-17T01:45:31.025Z,6.49
2023-02-17T01:48:06.776Z,6.51
2023-02-17T01:50:39.851Z,6.53
2023-02-17T01:53:13.065Z,6.54
2023-02-17T01:55:43.397Z,6.56
2023-02-17T01:58:15.271Z,6.57
2023-02-17T02:00:44.265Z,6.47
2023-02-17T02:03:15.861Z,6.49
2023-02-17T02:05:45.051Z,6.42
2023-02-17T02:08:16.405Z,6.40
2023-02-17T02:10:44.761Z,6.40
2023-02-17T02:13:15.183Z,6.40
2023-02-17T02:15:53.914Z,6.42
2023-02-17T02:18:33.416Z,6.47
2023-02-17T02:21:44.886Z,6.46
2023-02-17T02:24:26.754Z,6.31
2023-02-17T02:27:24.320Z,6.35
2023-02-17T02:30:24.841Z,6.35
2023-02-17T02:33:14.082Z,6.29
2023-02-17T02:35:52.358Z,6.17
2023-02-17T02:38:25.164Z,6.14
2023-02-17T02:41:00.516Z,6.07
2023-02-17T02:43:30.294Z,6.16
2023-02-17T02:46:01.082Z,6.21
2023-02-17T02:48:31.859Z,6.30
2023-02-17T02:51:15.007Z,6.39
2023-02-17T02:53:56.520Z,6.44
2023-02-17T02:56:40.182Z,6.52
2023-02-17T02:59:22.348Z,6.60
2023-02-17T03:02:02.035Z,6.69
2023-02-17T03:04:38.167Z,6.74
2023-02-17T03:07:13.022Z,6.78
2023-02-17T03:09:42.462Z,6.77
2023-02-17T03:12:14.663Z,6.84
2023-02-17T03:14:44.539Z,6.82
2023-02-17T03:17:13.453Z,6.91
2023-02-17T03:19:45.522Z,6.92
2023-02-17T03:22:21.311Z,6.95
2023-02-17T03:24:49.887Z,6.98
2023-02-17T03:27:18.234Z,7.02
2023-02-17T03:29:50.187Z,7.04
2023-02-17T03:32:20.615Z,7.06
2023-02-17T03:34:52.020Z,7.09
2023-02-17T03:37:20.365Z,7.10
2023-02-17T03:39:49.721Z,7.09
2023-02-17T03:42:18.094Z,7.12
2023-02-17T03:44:47.328Z,7.16
2023-02-17T03:47:15.955Z,7.15
2023-02-17T03:49:44.743Z,7.15
2023-02-17T03:52:14.424Z,7.16
2023-02-17T03:54:43.576Z,7.18
2023-02-17T03:57:11.999Z,7.17
2023-02-17T03:59:41.125Z,7.18
2023-02-17T04:02:09.439Z,7.19
2023-02-17T04:04:39.705Z,7.22
2023-02-17T04:07:08.060Z,7.25
2023-02-17T04:09:38.240Z,7.30
2023-02-17T04:12:06.775Z,7.33
2023-02-17T04:14:35.242Z,7.36
2023-02-17T04:17:03.974Z,7.36
2023-02-17T04:19:32.326Z,7.38
2023-02-17T04:22:00.640Z,7.34
2023-02-17T04:24:29.673Z,7.39
2023-02-17T04:26:59.362Z,7.44
2023-02-17T04:29:29.101Z,7.43
2023-02-17T04:31:57.630Z,7.43
2023-02-17T04:34:26.055Z,7.51
2023-02-17T04:36:54.426Z,7.54
2023-02-17T04:39:22.918Z,7.54
2023-02-17T04:41:51.763Z,7.55
2023-02-17T04:44:21.497Z,7.56
2023-02-17T04:46:50.949Z,7.58
2023-02-17T04:49:19.234Z,7.60
2023-02-17T04:51:48.143Z,7.64
2023-02-17T04:54:17.004Z,7.68
2023-02-17T04:56:45.316Z,7.70
2023-02-17T04:59:14.443Z,7.78
2023-02-17T05:01:44.163Z,7.78
2023-02-17T05:04:13.045Z,7.82
2023-02-17T05:06:41.427Z,7.84
2023-02-17T05:09:10.384Z,7.85
2023-02-17T05:11:39.087Z,7.87
2023-02-17T05:14:07.470Z,7.92
2023-02-17T05:16:36.263Z,7.95
2023-02-17T05:19:06.006Z,7.99
2023-02-17T05:21:35.565Z,8.02
2023-02-17T05:24:03.982Z,7.98
2023-02-17T05:26:33.239Z,8.09
2023-02-17T05:29:01.535Z,8.11
2023-02-17T05:31:31.007Z,8.14
2023-02-17T05:33:59.820Z,8.16
2023-02-17T05:36:29.813Z,8.19
2023-02-17T05:38:58.843Z,8.21
2023-02-17T05:41:27.169Z,8.26
2023-02-17T05:43:57.138Z,8.29
2023-02-17T05:46:25.610Z,8.33
2023-02-17T05:48:54.757Z,8.38
2023-02-17T05:51:23.105Z,8.39
2023-02-17T05:53:54.486Z,8.43
2023-02-17T05:56:22.892Z,8.44
2023-02-17T05:58:51.932Z,8.46
2023-02-17T06:01:20.852Z,8.49
2023-02-17T06:03:50.788Z,8.50
2023-02-17T06:06:19.122Z,8.55
2023-02-17T06:08:48.547Z,8.51
2023-02-17T06:11:18.343Z,8.57
2023-02-17T06:13:47.191Z,8.61
2023-02-17T06:16:15.587Z,8.64
2023-02-17T06:18:44.954Z,8.63
2023-02-17T06:21:13.289Z,8.67
2023-02-17T06:23:43.012Z,8.66
2023-02-17T06:26:11.325Z,8.70
2023-02-17T06:28:41.526Z,8.72
2023-02-17T06:31:10.484Z,8.71
2023-02-17T06:33:38.936Z,8.77
2023-02-17T06:36:09.282Z,8.78
2023-02-17T06:38:38.176Z,8.81
2023-02-17T06:41:07.204Z,8.82
2023-02-17T06:43:36.789Z,8.85
2023-02-17T06:46:06.886Z,8.88
2023-02-17T06:48:36.266Z,8.86
2023-02-17T06:51:04.903Z,8.89
2023-02-17T06:53:34.581Z,8.91
2023-02-17T06:56:03.057Z,8.88
2023-02-17T06:58:32.991Z,8.93
2023-02-17T07:01:01.840Z,8.94
2023-02-17T07:03:32.845Z,8.95
2023-02-17T07:06:02.293Z,8.96
2023-02-17T07:08:31.378Z,8.96
2023-02-17T07:11:00.914Z,8.98
2023-02-17T07:13:29.298Z,9.02
2023-02-17T07:15:58.048Z,9.03
2023-02-17T07:18:26.403Z,8.98
2023-02-17T07:20:56.148Z,9.06
2023-02-17T07:23:24.483Z,9.09
2023-02-17T07:25:53.254Z,9.13
2023-02-17T07:28:22.073Z,9.11
2023-02-17T07:30:50.421Z,9.23
2023-02-17T07:33:19.236Z,9.27
2023-02-17T07:35:48.210Z,9.25
2023-02-17T07:38:18.724Z,9.32
2023-02-17T07:40:47.030Z,9.42
2023-02-17T07:43:15.739Z,9.38
2023-02-17T07:45:44.658Z,9.40
2023-02-17T07:48:13.841Z,9.56
2023-02-17T07:50:42.210Z,9.59
2023-02-17T07:53:10.954Z,9.63
2023-02-17T07:55:41.105Z,9.65
2023-02-17T07:58:09.395Z,9.68
2023-02-17T08:00:37.796Z,9.64
2023-02-17T08:03:06.099Z,9.72
2023-02-17T08:05:34.996Z,9.81
2023-02-17T08:08:21.047Z,9.77
2023-02-17T08:11:09.568Z,9.88
2023-02-17T08:13:38.561Z,9.94
2023-02-17T08:16:08.392Z,9.99
2023-02-17T08:18:36.972Z,10.06
2023-02-17T08:21:07.031Z,10.16
2023-02-17T08:23:35.575Z,10.25
2023-02-17T08:26:06.257Z,10.38
2023-02-17T08:28:34.752Z,10.42
2023-02-17T08:31:03.935Z,10.55
2023-02-17T08:33:32.594Z,10.59
2023-02-17T08:36:07.827Z,10.73
2023-02-17T08:38:36.347Z,10.72
2023-02-17T08:41:15.162Z,10.71
2023-02-17T08:43:43.768Z,10.69
2023-02-17T08:46:13.755Z,10.67
2023-02-17T08:48:43.577Z,10.73
2023-02-17T08:51:13.939Z,10.83
2023-02-17T08:53:42.887Z,10.88
2023-02-17T08:56:11.237Z,10.96
2023-02-17T08:58:41.305Z,11.03
2023-02-17T09:01:09.862Z,11.07
2023-02-17T09:03:39.654Z,11.11
2023-02-17T09:06:09.542Z,11.15
2023-02-17T09:08:41.427Z,11.21
2023-02-17T09:11:10.528Z,11.26
2023-02-17T09:13:39.017Z,11.33
2023-02-17T09:16:10.016Z,11.44
2023-02-17T09:18:38.560Z,11.56
2023-02-17T09:21:09.170Z,11.67
2023-02-17T09:23:37.662Z,11.71
2023-02-17T09:26:10.446Z,11.70
2023-02-17T09:28:39.935Z,11.73
2023-02-17T09:31:15.461Z,11.70
2023-02-17T09:33:44.400Z,11.74
2023-02-17T09:36:16.166Z,11.70
2023-02-17T09:38:45.090Z,11.74
2023-02-17T09:41:19.315Z,11.87
2023-02-17T09:43:49.248Z,11.98
2023-02-17T09:46:24.999Z,12.29
2023-02-17T09:48:57.063Z,12.46
2023-02-17T09:51:30.559Z,12.55
2023-02-17T09:54:08.204Z,12.62
2023-02-17T09:56:41.110Z,12.68
2023-02-17T09:59:15.974Z,12.83
2023-02-17T10:01:47.102Z,12.86
2023-02-17T10:04:21.235Z,13.11
2023-02-17T10:06:54.652Z,13.37
2023-02-17T10:09:30.250Z,13.78
2023-02-17T10:12:03.605Z,14.02
2023-02-17T10:14:38.349Z,13.96
2023-02-17T10:17:14.717Z,13.82
2023-02-17T10:19:52.364Z,13.68
2023-02-17T10:22:23.096Z,13.76
2023-02-17T10:24:51.996Z,13.67
2023-02-17T10:27:36.614Z,13.78
2023-02-17T10:30:21.151Z,13.88
2023-02-17T10:33:01.027Z,14.00
2023-02-17T10:35:49.764Z,14.03
2023-02-17T10:38:22.768Z,14.02
2023-02-17T10:40:52.575Z,13.96
2023-02-17T10:43:26.949Z,14.00
2023-02-17T10:45:56.182Z,13.83
2023-02-17T10:48:33.457Z,13.71
2023-02-17T10:51:03.155Z,13.67
2023-02-17T10:53:35.288Z,13.57
2023-02-17T10:56:09.945Z,13.53
2023-02-17T10:58:47.432Z,13.51
2023-02-17T11:01:16.665Z,13.39
2023-02-17T11:03:46.444Z,13.39
2023-02-17T11:06:22.593Z,13.31
2023-02-17T11:08:53.471Z,13.31
2023-02-17T11:11:24.848Z,13.27
2023-02-17T11:14:18.876Z,13.29
2023-02-17T11:16:53.566Z,13.32
2023-02-17T11:19:26.517Z,13.36
2023-02-17T11:21:57.627Z,13.43
2023-02-17T11:24:26.751Z,13.51
2023-02-17T11:26:59.769Z,13.57
2023-02-17T11:29:28.436Z,13.62
2023-02-17T11:32:00.362Z,13.59
2023-02-17T11:34:32.960Z,13.80
2023-02-17T11:37:04.514Z,13.95
2023-02-17T11:39:38.837Z,14.11
2023-02-17T11:42:16.471Z,14.24
2023-02-17T11:44:44.835Z,14.33
2023-02-17T11:47:25.706Z,14.36
2023-02-17T11:50:39.047Z,14.39
2023-02-17T11:53:27.866Z,14.18
2023-02-17T11:56:07.661Z,14.10
2023-02-17T11:58:55.329Z,14.02
2023-02-17T12:01:44.129Z,14.02
2023-02-17T12:04:27.992Z,13.96
2023-02-17T12:07:15.448Z,13.77
2023-02-17T12:09:55.482Z,13.61
2023-02-17T12:12:36.243Z,13.41
2023-02-17T12:15:22.436Z,13.31
2023-02-17T12:17:57.705Z,13.23
2023-02-17T12:20:38.252Z,13.16
2023-02-17T12:23:25.251Z,13.24
2023-02-17T12:26:00.581Z,13.12
2023-02-17T12:28:43.267Z,13.31
2023-02-17T12:31:22.860Z,13.30
2023-02-17T12:34:00.631Z,13.30
2023-02-17T12:36:35.240Z,13.37
2023-02-17T12:39:14.526Z,13.39
2023-02-17T12:41:49.736Z,13.55
2023-02-17T12:44:22.067Z,13.53
2023-02-17T12:46:55.356Z,13.59
2023-02-17T12:49:28.573Z,13.62
2023-02-17T12:52:05.427Z,13.71
2023-02-17T12:54:41.742Z,13.74
2023-02-17T12:57:16.508Z,13.76
2023-02-17T12:59:46.983Z,13.75
2023-02-17T13:02:18.519Z,13.76
2023-02-17T13:04:50.682Z,13.76
2023-02-17T13:07:42.487Z,13.80
2023-02-17T13:10:32.037Z,13.80
2023-02-17T13:13:04.313Z,13.78
2023-02-17T13:15:36.510Z,13.71
2023-02-17T13:18:07.410Z,13.67
2023-02-17T13:20:55.493Z,13.66
2023-02-17T13:23:31.779Z,13.65
2023-02-17T13:26:30.852Z,13.60
2023-02-17T13:29:34.302Z,13.55
2023-02-17T13:32:06.099Z,13.50
2023-02-17T13:34:37.288Z,13.53
2023-02-17T13:37:19.341Z,13.51
2023-02-17T13:39:48.015Z,13.50
2023-02-17T13:42:37.184Z,13.45
2023-02-17T13:45:19.888Z,13.35
2023-02-17T13:47:50.082Z,13.29
2023-02-17T13:50:31.835Z,13.25
2023-02-17T13:53:00.752Z,13.09
2023-02-17T13:55:29.711Z,12.99
2023-02-17T13:58:00.718Z,12.95
2023-02-17T14:00:30.674Z,12.90
2023-02-17T14:03:03.403Z,12.70
2023-02-17T14:05:40.083Z,12.71
2023-02-17T14:08:15.978Z,12.65
2023-02-17T14:10:45.014Z,12.58
2023-02-17T14:13:16.112Z,12.50
2023-02-17T14:15:53.410Z,12.47
2023-02-17T14:18:35.147Z,12.46
2023-02-17T14:21:09.823Z,12.38
2023-02-17T14:23:46.880Z,12.38
2023-02-17T14:26:27.136Z,12.35
2023-02-17T14:29:00.215Z,12.34
2023-02-17T14:31:29.437Z,12.36
2023-02-17T14:34:01.436Z,12.35
2023-02-17T14:36:32.967Z,12.34
2023-02-17T14:39:04.823Z,12.37
2023-02-17T14:41:33.700Z,12.35
2023-02-17T14:44:03.420Z,12.35
2023-02-17T14:46:33.114Z,12.35
2023-02-17T14:49:01.730Z,12.31
2023-02-17T14:51:35.389Z,12.34
2023-02-17T14:54:05.301Z,12.34
2023-02-17T14:56:37.230Z,12.35
2023-02-17T14:59:07.690Z,12.39
2023-02-17T15:01:36.123Z,12.42
2023-02-17T15:04:05.246Z,12.48
2023-02-17T15:06:41.062Z,12.21
2023-02-17T15:09:13.370Z,12.42
2023-02-17T15:11:45.479Z,12.49
2023-02-17T15:14:17.845Z,12.54
2023-02-17T15:16:46.948Z,12.55
2023-02-17T15:19:18.536Z,12.57
2023-02-17T15:21:49.353Z,12.60
2023-02-17T15:24:21.791Z,12.55
2023-02-17T15:26:51.104Z,12.55
2023-02-17T15:29:23.048Z,12.49
2023-02-17T15:31:55.714Z,12.56
2023-02-17T15:34:29.313Z,12.53
2023-02-17T15:36:58.869Z,12.51
2023-02-17T15:39:27.997Z,12.48
2023-02-17T15:41:58.383Z,12.47
2023-02-17T15:44:37.650Z,12.54
2023-02-17T15:47:06.528Z,12.57
2023-02-17T15:49:35.587Z,12.60
2023-02-17T15:52:04.266Z,12.61
2023-02-17T15:54:32.599Z,12.60
2023-02-17T15:57:03.309Z,12.59
2023-02-17T15:59:33.820Z,12.52
2023-02-17T16:02:02.853Z,12.49
2023-02-17T16:04:31.360Z,12.51
2023-02-17T16:07:00.396Z,12.52
2023-02-17T16:09:28.766Z,12.54
2023-02-17T16:11:57.368Z,12.56
2023-02-17T16:14:33.023Z,12.57
2023-02-17T16:17:02.924Z,12.56
2023-02-17T16:19:31.645Z,12.57
2023-02-17T16:22:00.016Z,12.56
2023-02-17T16:24:28.800Z,12.50
2023-02-17T16:26:58.256Z,12.45
2023-02-17T16:29:26.752Z,12.42
2023-02-17T16:31:56.392Z,12.36
2023-02-17T16:34:26.744Z,12.33
2023-02-17T16:36:59.666Z,12.30
2023-02-17T16:39:28.180Z,12.27
2023-02-17T16:41:58.226Z,12.24
2023-02-17T16:44:26.576Z,12.22
2023-02-17T16:46:57.040Z,12.22
2023-02-17T16:49:33.063Z,12.17
2023-02-17T16:52:02.468Z,12.12
2023-02-17T16:54:33.773Z,12.06
2023-02-17T16:57:03.755Z,12.05
2023-02-17T16:59:32.577Z,12.04
2023-02-17T17:02:01.498Z,12.02
2023-02-17T17:04:31.355Z,12.02
2023-02-17T17:06:59.664Z,12.00
2023-02-17T17:09:30.437Z,11.99
2023-02-17T17:11:59.152Z,11.94
2023-02-17T17:14:28.080Z,11.91
2023-02-17T17:17:00.287Z,11.88
2023-02-17T17:19:28.691Z,11.84
2023-02-17T17:21:59.196Z,11.81
2023-02-17T17:24:28.232Z,11.75
2023-02-17T17:26:56.545Z,11.76
2023-02-17T17:29:26.315Z,11.70
2023-02-17T17:31:54.692Z,11.66
2023-02-17T17:34:23.810Z,11.66
2023-02-17T17:36:52.158Z,11.63
2023-02-17T17:39:24.676Z,11.59
2023-02-17T17:41:53.801Z,11.55
2023-02-17T17:44:22.600Z,11.54
2023-02-17T17:46:51.069Z,11.52
2023-02-17T17:49:19.849Z,11.48
2023-02-17T17:51:48.660Z,11.48
2023-02-17T17:54:17.058Z,11.47
2023-02-17T17:56:46.987Z,11.48
2023-02-17T17:59:15.693Z,11.46
2023-02-17T18:01:45.846Z,11.43
2023-02-17T18:04:14.583Z,11.42
2023-02-17T18:06:46.796Z,11.42
2023-02-17T18:09:30.599Z,11.40
2023-02-17T18:12:05.216Z,11.39
2023-02-17T18:14:36.036Z,11.36
2023-02-17T18:17:05.255Z,11.35
2023-02-17T18:19:33.782Z,11.32
2023-02-17T18:22:02.632Z,11.31
2023-02-17T18:24:31.083Z,11.30
2023-02-17T18:27:00.770Z,11.30
2023-02-17T18:29:30.309Z,11.26
2023-02-17T18:32:00.067Z,11.25
2023-02-17T18:34:28.525Z,11.24
2023-02-17T18:36:56.888Z,11.21
2023-02-17T18:39:25.219Z,11.19
2023-02-17T18:41:53.670Z,11.18
2023-02-17T18:44:23.356Z,11.17
2023-02-17T18:46:53.584Z,11.12
2023-02-17T18:49:21.897Z,11.16
2023-02-17T18:51:51.566Z,10.92
2023-02-17T18:54:21.278Z,11.08
2023-02-17T18:56:49.610Z,11.19
2023-02-17T18:59:18.951Z,11.19
2023-02-17T19:01:49.100Z,11.22
2023-02-17T19:04:17.529Z,11.28
2023-02-17T19:06:46.462Z,11.27
2023-02-17T19:09:14.942Z,11.21
2023-02-17T19:11:43.357Z,11.27
2023-02-17T19:14:12.393Z,11.27
2023-02-17T19:16:40.756Z,11.35
2023-02-17T19:19:10.861Z,11.36
2023-02-17T19:21:39.289Z,11.36
2023-02-17T19:24:09.464Z,11.39
2023-02-17T19:26:38.027Z,11.43
2023-02-17T19:29:06.470Z,11.44
2023-02-17T19:31:34.966Z,11.46
2023-02-17T19:34:04.393Z,11.48
2023-02-17T19:36:34.146Z,11.48
2023-02-17T19:39:03.339Z,11.52
2023-02-17T19:41:34.925Z,11.55
2023-02-17T19:44:04.437Z,11.58
2023-02-17T19:46:33.300Z,11.59
2023-02-17T19:49:01.628Z,11.59
2023-02-17T19:51:31.694Z,11.64
2023-02-17T19:54:02.877Z,11.64
2023-02-17T19:56:33.122Z,11.63
2023-02-17T19:59:02.393Z,11.57
2023-02-17T20:01:33.133Z,11.66
2023-02-17T20:04:05.622Z,11.68
2023-02-17T20:06:35.725Z,11.64
2023-02-17T20:09:09.245Z,11.71
2023-02-17T20:11:37.950Z,11.71
2023-02-17T20:14:08.657Z,11.71
2023-02-17T20:16:36.991Z,11.73
2023-02-17T20:19:06.499Z,11.67
2023-02-17T20:21:38.209Z,11.73
2023-02-17T20:24:08.468Z,11.77
2023-02-17T20:26:40.965Z,11.78
2023-02-17T20:29:10.884Z,11.81
2023-02-17T20:31:40.856Z,11.81
2023-02-17T20:34:23.026Z,11.74
2023-02-17T20:36:51.812Z,11.85
2023-02-17T20:39:21.520Z,11.89
2023-02-17T20:41:51.302Z,11.90
2023-02-17T20:44:20.396Z,11.92
2023-02-17T20:46:49.436Z,11.91
2023-02-17T20:49:18.640Z,12.02
2023-02-17T20:51:47.590Z,12.11
2023-02-17T20:54:17.229Z,12.20
2023-02-17T20:56:48.654Z,12.24
2023-02-17T20:59:17.071Z,12.32
2023-02-17T21:01:45.989Z,12.35
2023-02-17T21:04:15.771Z,12.38
2023-02-17T21:06:47.049Z,12.29
2023-02-17T21:09:19.408Z,12.43
2023-02-17T21:11:49.175Z,12.47
2023-02-17T21:14:18.430Z,12.49
2023-02-17T21:16:47.511Z,12.39
2023-02-17T21:19:16.699Z,12.54
2023-02-17T21:21:45.048Z,12.55
2023-02-17T21:24:13.722Z,12.56
2023-02-17T21:26:42.438Z,12.53
2023-02-17T21:29:14.419Z,12.57
2023-02-17T21:31:42.957Z,12.58
2023-02-17T21:34:12.380Z,12.58
2023-02-17T21:36:41.082Z,12.56
2023-02-17T21:39:09.436Z,12.52
2023-02-17T21:41:42.853Z,12.52
2023-02-17T21:44:32.231Z,12.47
2023-02-17T21:47:00.606Z,12.42
2023-02-17T21:49:29.288Z,12.40
2023-02-17T21:51:58.868Z,12.36
2023-02-17T21:54:27.273Z,12.33
2023-02-17T21:56:56.586Z,12.28
2023-02-17T21:59:26.372Z,12.31
2023-02-17T22:01:56.803Z,12.32
2023-02-17T22:04:28.107Z,12.31
2023-02-17T22:06:57.599Z,12.33
2023-02-17T22:09:25.973Z,12.31
2023-02-17T22:11:56.153Z,12.33
2023-02-17T22:14:27.105Z,12.36
2023-02-17T22:16:57.917Z,12.34
2023-02-17T22:19:28.771Z,12.34
2023-02-17T22:21:59.118Z,12.35
2023-02-17T22:24:27.980Z,12.33
2023-02-17T22:29:45.330Z,12.34
2023-02-17T22:32:13.760Z,12.33
2023-02-17T22:34:42.373Z,12.35
2023-02-17T22:37:11.172Z,12.31
2023-02-17T22:39:39.892Z,12.30
2023-02-17T22:42:08.202Z,12.30
2023-02-17T22:44:37.748Z,12.26
2023-02-17T22:47:07.628Z,12.28
2023-02-17T22:49:35.954Z,12.26
2023-02-17T22:52:05.243Z,12.24
2023-02-17T22:54:33.883Z,12.23
2023-02-17T22:57:03.955Z,12.23
2023-02-17T22:59:32.354Z,12.21
2023-02-17T23:02:01.790Z,12.18
2023-02-17T23:04:31.440Z,12.12
2023-02-17T23:07:00.668Z,12.11
2023-02-17T23:09:29.033Z,12.11
2023-02-17T23:11:59.574Z,12.08
2023-02-17T23:14:29.626Z,11.95
2023-02-17T23:17:00.710Z,12.05
2023-02-17T23:19:31.405Z,11.85
2023-02-17T23:22:03.822Z,11.97
2023-02-17T23:24:32.998Z,12.03
2023-02-17T23:27:03.220Z,11.98
2023-02-17T23:29:32.949Z,11.97
2023-02-17T23:32:02.362Z,11.95
2023-02-17T23:34:33.233Z,11.92
2023-02-17T23:37:02.627Z,11.91
2023-02-17T23:39:32.181Z,11.84
2023-02-17T23:42:00.496Z,11.79
2023-02-17T23:44:30.683Z,11.73
2023-02-17T23:46:59.344Z,11.78
2023-02-17T23:49:29.196Z,11.80
2023-02-17T23:51:58.915Z,11.80
2023-02-17T23:54:28.591Z,11.78
2023-02-17T23:56:56.903Z,11.77
2023-02-17T23:59:26.894Z,11.81
